sensor_id;sensor_type;location;lat;lon;timestamp;temperature;humidity
44990;DHT22;30723;51.206;3.326;2024-03-17T00:01:46;9.30;99.90
44990;DHT22;30723;51.206;3.326;2024-03-17T00:04:12;9.20;99.90
44990;DHT22;30723;51.206;3.326;2024-03-17T00:06:37;9.20;99.90
44990;DHT22;30723;51.206;3.326;2024-03-17T00:09:03;9.10;99.90
44990;DHT22;30723;51.206;3.326;2024-03-17T00:11:33;9.20;99.90
44990;DHT22;30723;51.206;3.326;2024-03-17T00:14:01;9.20;99.90
44990;DHT22;30723;51.206;3.326;2024-03-17T00:16:27;9.20;99.90
44990;DHT22;30723;51.206;3.326;2024-03-17T00:18:53;9.20;99.90
44990;DHT22;30723;51.206;3.326;2024-03-17T00:21:19;9.30;99.90
44990;DHT22;30723;51.206;3.326;2024-03-17T00:23:50;9.30;99.90
44990;DHT22;30723;51.206;3.326;2024-03-17T00:26:16;9.30;99.90
44990;DHT22;30723;51.206;3.326;2024-03-17T00:28:42;9.40;99.90
44990;DHT22;30723;51.206;3.326;2024-03-17T00:31:08;9.40;99.90
44990;DHT22;30723;51.206;3.326;2024-03-17T00:33:39;9.50;99.90
44990;DHT22;30723;51.206;3.326;2024-03-17T00:36:05;9.50;99.90
44990;DHT22;30723;51.206;3.326;2024-03-17T00:38:33;9.50;99.90
44990;DHT22;30723;51.206;3.326;2024-03-17T00:40:59;9.60;99.90
44990;DHT22;30723;51.206;3.326;2024-03-17T00:43:25;9.60;99.90
44990;DHT22;30723;51.206;3.326;2024-03-17T00:45:54;9.60;99.90
44990;DHT22;30723;51.206;3.326;2024-03-17T00:48:19;9.70;99.90
44990;DHT22;30723;51.206;3.326;2024-03-17T00:50:46;9.70;99.90
44990;DHT22;30723;51.206;3.326;2024-03-17T00:53:12;9.80;99.90
44990;DHT22;30723;51.206;3.326;2024-03-17T00:55:38;9.90;99.90
44990;DHT22;30723;51.206;3.326;2024-03-17T00:58:04;9.90;99.90
44990;DHT22;30723;51.206;3.326;2024-03-17T01:00:30;9.90;99.90
44990;DHT22;30723;51.206;3.326;2024-03-17T01:02:58;10.00;99.90
44990;DHT22;30723;51.206;3.326;2024-03-17T01:05:24;10.00;99.90
44990;DHT22;30723;51.206;3.326;2024-03-17T01:07:50;10.00;99.90
44990;DHT22;30723;51.206;3.326;2024-03-17T01:10:16;9.90;99.90
44990;DHT22;30723;51.206;3.326;2024-03-17T01:12:41;9.90;99.90
44990;DHT22;30723;51.206;3.326;2024-03-17T01:15:08;9.90;99.90
44990;DHT22;30723;51.206;3.326;2024-03-17T01:17:34;9.80;99.90
44990;DHT22;30723;51.206;3.326;2024-03-17T01:19:59;9.80;99.90
44990;DHT22;30723;51.206;3.326;2024-03-17T01:22:25;9.70;99.90
44990;DHT22;30723;51.206;3.326;2024-03-17T01:24:51;9.60;99.90
44990;DHT22;30723;51.206;3.326;2024-03-17T01:27:17;9.60;99.90
44990;DHT22;30723;51.206;3.326;2024-03-17T01:29:43;9.60;99.90
44990;DHT22;30723;51.206;3.326;2024-03-17T01:32:09;9.70;99.90
44990;DHT22;30723;51.206;3.326;2024-03-17T01:34:37;9.60;99.90
44990;DHT22;30723;51.206;3.326;2024-03-17T01:37:02;9.70;99.90
44990;DHT22;30723;51.206;3.326;2024-03-17T01:39:30;9.70;99.90
44990;DHT22;30723;51.206;3.326;2024-03-17T01:41:57;9.80;99.90
44990;DHT22;30723;51.206;3.326;2024-03-17T01:44:27;9.70;99.90
44990;DHT22;30723;51.206;3.326;2024-03-17T01:46:57;9.70;99.90
44990;DHT22;30723;51.206;3.326;2024-03-17T01:49:24;9.70;99.90
44990;DHT22;30723;51.206;3.326;2024-03-17T01:51:52;9.80;99.90
44990;DHT22;30723;51.206;3.326;2024-03-17T01:54:19;9.80;99.90
44990;DHT22;30723;51.206;3.326;2024-03-17T01:56:46;9.80;99.90
44990;DHT22;30723;51.206;3.326;2024-03-17T01:59:13;9.90;99.90
44990;DHT22;30723;51.206;3.326;2024-03-17T02:01:39;9.90;99.90
44990;DHT22;30723;51.206;3.326;2024-03-17T02:04:06;9.80;99.90
44990;DHT22;30723;51.206;3.326;2024-03-17T02:06:32;9.80;99.90
44990;DHT22;30723;51.206;3.326;2024-03-17T02:08:58;9.90;99.90
44990;DHT22;30723;51.206;3.326;2024-03-17T02:11:32;9.90;99.90
44990;DHT22;30723;51.206;3.326;2024-03-17T02:14:01;9.90;99.90
44990;DHT22;30723;51.206;3.326;2024-03-17T02:16:27;9.90;99.90
44990;DHT22;30723;51.206;3.326;2024-03-17T02:18:56;9.90;99.90
44990;DHT22;30723;51.206;3.326;2024-03-17T02:21:23;9.80;99.90
44990;DHT22;30723;51.206;3.326;2024-03-17T02:23:50;9.70;99.90
44990;DHT22;30723;51.206;3.326;2024-03-17T02:26:17;9.70;99.90
44990;DHT22;30723;51.206;3.326;2024-03-17T02:28:47;9.70;99.90
44990;DHT22;30723;51.206;3.326;2024-03-17T02:31:15;9.70;99.90
44990;DHT22;30723;51.206;3.326;2024-03-17T02:33:43;9.80;99.90
44990;DHT22;30723;51.206;3.326;2024-03-17T02:36:10;9.80;99.90
44990;DHT22;30723;51.206;3.326;2024-03-17T02:38:40;9.80;99.90
44990;DHT22;30723;51.206;3.326;2024-03-17T02:41:25;9.90;99.90
44990;DHT22;30723;51.206;3.326;2024-03-17T02:43:51;9.90;99.90
44990;DHT22;30723;51.206;3.326;2024-03-17T02:46:18;10.00;99.90
44990;DHT22;30723;51.206;3.326;2024-03-17T02:48:46;9.90;99.90
44990;DHT22;30723;51.206;3.326;2024-03-17T02:51:16;9.90;99.90
44990;DHT22;30723;51.206;3.326;2024-03-17T02:53:43;9.90;99.90
44990;DHT22;30723;51.206;3.326;2024-03-17T02:56:11;9.90;99.90
44990;DHT22;30723;51.206;3.326;2024-03-17T02:58:37;10.00;99.90
44990;DHT22;30723;51.206;3.326;2024-03-17T03:01:04;9.90;99.90
44990;DHT22;30723;51.206;3.326;2024-03-17T03:03:33;9.80;99.90
44990;DHT22;30723;51.206;3.326;2024-03-17T03:05:59;9.80;99.90
44990;DHT22;30723;51.206;3.326;2024-03-17T03:08:41;9.80;99.90
44990;DHT22;30723;51.206;3.326;2024-03-17T03:11:11;9.70;99.90
44990;DHT22;30723;51.206;3.326;2024-03-17T03:13:41;9.70;99.90
44990;DHT22;30723;51.206;3.326;2024-03-17T03:16:09;9.80;99.90
44990;DHT22;30723;51.206;3.326;2024-03-17T03:18:36;9.70;99.90
44990;DHT22;30723;51.206;3.326;2024-03-17T03:21:03;9.70;99.90
44990;DHT22;30723;51.206;3.326;2024-03-17T03:23:30;9.70;99.90
44990;DHT22;30723;51.206;3.326;2024-03-17T03:25:57;9.60;99.90
44990;DHT22;30723;51.206;3.326;2024-03-17T03:28:23;9.60;99.90
44990;DHT22;30723;51.206;3.326;2024-03-17T03:30:49;9.60;99.90
44990;DHT22;30723;51.206;3.326;2024-03-17T03:33:15;9.60;99.90
44990;DHT22;30723;51.206;3.326;2024-03-17T03:35:41;9.60;99.90
44990;DHT22;30723;51.206;3.326;2024-03-17T03:38:07;9.50;99.90
44990;DHT22;30723;51.206;3.326;2024-03-17T03:40:34;9.60;99.90
44990;DHT22;30723;51.206;3.326;2024-03-17T03:42:59;9.50;99.90
44990;DHT22;30723;51.206;3.326;2024-03-17T03:45:25;9.50;99.90
44990;DHT22;30723;51.206;3.326;2024-03-17T03:47:51;9.50;99.90
44990;DHT22;30723;51.206;3.326;2024-03-17T03:50:20;9.50;99.90
44990;DHT22;30723;51.206;3.326;2024-03-17T03:52:46;9.50;99.90
44990;DHT22;30723;51.206;3.326;2024-03-17T03:55:15;9.50;99.90
44990;DHT22;30723;51.206;3.326;2024-03-17T03:57:42;9.50;99.90
44990;DHT22;30723;51.206;3.326;2024-03-17T04:00:08;9.40;99.90
44990;DHT22;30723;51.206;3.326;2024-03-17T04:02:48;9.40;99.90
44990;DHT22;30723;51.206;3.326;2024-03-17T04:05:15;9.40;99.90
44990;DHT22;30723;51.206;3.326;2024-03-17T04:07:41;9.40;99.90
44990;DHT22;30723;51.206;3.326;2024-03-17T04:10:09;9.40;99.90
44990;DHT22;30723;51.206;3.326;2024-03-17T04:12:35;9.40;99.90
44990;DHT22;30723;51.206;3.326;2024-03-17T04:15:01;9.40;99.90
44990;DHT22;30723;51.206;3.326;2024-03-17T04:17:28;9.40;99.90
44990;DHT22;30723;51.206;3.326;2024-03-17T04:19:54;9.30;99.90
44990;DHT22;30723;51.206;3.326;2024-03-17T04:22:21;9.30;99.90
44990;DHT22;30723;51.206;3.326;2024-03-17T04:24:48;9.30;99.90
44990;DHT22;30723;51.206;3.326;2024-03-17T04:27:19;9.20;99.90
44990;DHT22;30723;51.206;3.326;2024-03-17T04:29:49;9.30;99.90
44990;DHT22;30723;51.206;3.326;2024-03-17T04:32:15;9.20;99.90
44990;DHT22;30723;51.206;3.326;2024-03-17T04:34:41;9.20;99.90
44990;DHT22;30723;51.206;3.326;2024-03-17T04:37:09;9.20;99.90
44990;DHT22;30723;51.206;3.326;2024-03-17T04:39:42;9.10;99.90
44990;DHT22;30723;51.206;3.326;2024-03-17T04:42:12;9.10;99.90
44990;DHT22;30723;51.206;3.326;2024-03-17T04:44:40;9.20;99.90
44990;DHT22;30723;51.206;3.326;2024-03-17T04:47:06;9.20;99.90
44990;DHT22;30723;51.206;3.326;2024-03-17T04:49:39;9.10;99.90
44990;DHT22;30723;51.206;3.326;2024-03-17T04:52:06;9.20;99.90
44990;DHT22;30723;51.206;3.326;2024-03-17T04:54:33;9.20;99.90
44990;DHT22;30723;51.206;3.326;2024-03-17T04:56:59;9.20;99.90
44990;DHT22;30723;51.206;3.326;2024-03-17T04:59:25;9.20;99.90
44990;DHT22;30723;51.206;3.326;2024-03-17T05:01:52;9.20;99.90
44990;DHT22;30723;51.206;3.326;2024-03-17T05:04:18;9.20;99.90
44990;DHT22;30723;51.206;3.326;2024-03-17T05:06:44;9.20;99.90
44990;DHT22;30723;51.206;3.326;2024-03-17T05:09:13;9.20;99.90
44990;DHT22;30723;51.206;3.326;2024-03-17T05:11:39;9.20;99.90
44990;DHT22;30723;51.206;3.326;2024-03-17T05:14:05;9.30;99.90
44990;DHT22;30723;51.206;3.326;2024-03-17T05:16:31;9.30;99.90
44990;DHT22;30723;51.206;3.326;2024-03-17T05:18:57;9.40;99.90
44990;DHT22;30723;51.206;3.326;2024-03-17T05:21:23;9.40;99.90
44990;DHT22;30723;51.206;3.326;2024-03-17T05:23:49;9.50;99.90
44990;DHT22;30723;51.206;3.326;2024-03-17T05:26:15;9.50;99.90
44990;DHT22;30723;51.206;3.326;2024-03-17T05:28:41;9.50;99.90
44990;DHT22;30723;51.206;3.326;2024-03-17T05:31:07;9.50;99.90
44990;DHT22;30723;51.206;3.326;2024-03-17T05:33:33;9.60;99.90
44990;DHT22;30723;51.206;3.326;2024-03-17T05:36:00;9.60;99.90
44990;DHT22;30723;51.206;3.326;2024-03-17T05:38:29;9.60;99.90
44990;DHT22;30723;51.206;3.326;2024-03-17T05:41:05;9.50;99.90
44990;DHT22;30723;51.206;3.326;2024-03-17T05:43:33;9.60;99.90
44990;DHT22;30723;51.206;3.326;2024-03-17T05:46:02;9.60;99.90
44990;DHT22;30723;51.206;3.326;2024-03-17T05:48:33;9.70;99.90
44990;DHT22;30723;51.206;3.326;2024-03-17T05:51:01;9.70;99.90
44990;DHT22;30723;51.206;3.326;2024-03-17T05:53:30;9.70;99.90
44990;DHT22;30723;51.206;3.326;2024-03-17T05:55:59;9.60;99.90
44990;DHT22;30723;51.206;3.326;2024-03-17T05:58:25;9.70;99.90
44990;DHT22;30723;51.206;3.326;2024-03-17T06:00:51;9.70;99.90
44990;DHT22;30723;51.206;3.326;2024-03-17T06:03:16;9.70;99.90
44990;DHT22;30723;51.206;3.326;2024-03-17T06:05:44;9.70;99.90
44990;DHT22;30723;51.206;3.326;2024-03-17T06:08:11;9.80;99.90
44990;DHT22;30723;51.206;3.326;2024-03-17T06:10:42;9.70;99.90
44990;DHT22;30723;51.206;3.326;2024-03-17T06:13:08;9.80;99.90
44990;DHT22;30723;51.206;3.326;2024-03-17T06:15:37;9.90;99.90
44990;DHT22;30723;51.206;3.326;2024-03-17T06:18:04;10.00;99.90
44990;DHT22;30723;51.206;3.326;2024-03-17T06:20:30;10.00;99.90
44990;DHT22;30723;51.206;3.326;2024-03-17T06:22:56;10.10;99.90
44990;DHT22;30723;51.206;3.326;2024-03-17T06:25:22;10.10;99.90
44990;DHT22;30723;51.206;3.326;2024-03-17T06:27:51;10.20;99.90
44990;DHT22;30723;51.206;3.326;2024-03-17T06:30:17;10.30;99.90
44990;DHT22;30723;51.206;3.326;2024-03-17T06:32:44;10.20;99.90
44990;DHT22;30723;51.206;3.326;2024-03-17T06:35:16;10.20;99.90
44990;DHT22;30723;51.206;3.326;2024-03-17T06:37:43;10.20;99.90
44990;DHT22;30723;51.206;3.326;2024-03-17T06:40:13;10.20;99.90
44990;DHT22;30723;51.206;3.326;2024-03-17T06:42:39;10.30;99.90
44990;DHT22;30723;51.206;3.326;2024-03-17T06:45:05;10.30;99.90
44990;DHT22;30723;51.206;3.326;2024-03-17T06:47:34;10.30;99.90
44990;DHT22;30723;51.206;3.326;2024-03-17T06:50:02;10.40;99.90
44990;DHT22;30723;51.206;3.326;2024-03-17T06:52:29;10.40;99.90
44990;DHT22;30723;51.206;3.326;2024-03-17T06:54:55;10.40;99.90
44990;DHT22;30723;51.206;3.326;2024-03-17T06:57:20;10.40;99.90
44990;DHT22;30723;51.206;3.326;2024-03-17T06:59:46;10.50;99.90
44990;DHT22;30723;51.206;3.326;2024-03-17T07:02:14;10.50;99.90
44990;DHT22;30723;51.206;3.326;2024-03-17T07:04:43;10.50;99.90
44990;DHT22;30723;51.206;3.326;2024-03-17T07:07:09;10.60;99.90
44990;DHT22;30723;51.206;3.326;2024-03-17T07:09:35;10.70;99.90
44990;DHT22;30723;51.206;3.326;2024-03-17T07:12:01;10.70;99.90
44990;DHT22;30723;51.206;3.326;2024-03-17T07:14:27;10.70;99.90
44990;DHT22;30723;51.206;3.326;2024-03-17T07:16:53;10.80;99.90
44990;DHT22;30723;51.206;3.326;2024-03-17T07:19:19;10.80;99.90
44990;DHT22;30723;51.206;3.326;2024-03-17T07:21:45;10.70;99.90
44990;DHT22;30723;51.206;3.326;2024-03-17T07:24:10;10.60;99.90
44990;DHT22;30723;51.206;3.326;2024-03-17T07:26:36;10.60;99.90
44990;DHT22;30723;51.206;3.326;2024-03-17T07:29:02;10.60;99.90
44990;DHT22;30723;51.206;3.326;2024-03-17T07:31:27;10.60;99.90
44990;DHT22;30723;51.206;3.326;2024-03-17T07:33:53;10.50;99.90
44990;DHT22;30723;51.206;3.326;2024-03-17T07:36:19;10.50;99.90
44990;DHT22;30723;51.206;3.326;2024-03-17T07:38:47;10.70;99.90
44990;DHT22;30723;51.206;3.326;2024-03-17T07:41:13;10.80;99.90
44990;DHT22;30723;51.206;3.326;2024-03-17T07:43:39;10.80;99.90
44990;DHT22;30723;51.206;3.326;2024-03-17T07:46:10;10.90;99.90
44990;DHT22;30723;51.206;3.326;2024-03-17T07:48:39;11.10;99.90
44990;DHT22;30723;51.206;3.326;2024-03-17T07:51:07;11.10;99.90
44990;DHT22;30723;51.206;3.326;2024-03-17T07:53:35;11.20;99.90
44990;DHT22;30723;51.206;3.326;2024-03-17T07:56:05;11.30;99.90
44990;DHT22;30723;51.206;3.326;2024-03-17T07:58:32;11.50;99.90
44990;DHT22;30723;51.206;3.326;2024-03-17T08:01:03;11.50;99.90
44990;DHT22;30723;51.206;3.326;2024-03-17T08:03:30;11.60;99.90
44990;DHT22;30723;51.206;3.326;2024-03-17T08:05:57;11.70;99.90
44990;DHT22;30723;51.206;3.326;2024-03-17T08:08:23;11.70;99.90
44990;DHT22;30723;51.206;3.326;2024-03-17T08:10:49;11.70;99.90
44990;DHT22;30723;51.206;3.326;2024-03-17T08:13:19;11.80;99.90
44990;DHT22;30723;51.206;3.326;2024-03-17T08:15:45;11.70;99.90
44990;DHT22;30723;51.206;3.326;2024-03-17T08:18:12;11.70;99.90
44990;DHT22;30723;51.206;3.326;2024-03-17T08:20:41;11.70;99.90
44990;DHT22;30723;51.206;3.326;2024-03-17T08:23:12;11.70;99.90
44990;DHT22;30723;51.206;3.326;2024-03-17T08:25:39;11.70;99.90
44990;DHT22;30723;51.206;3.326;2024-03-17T08:28:05;11.80;99.90
44990;DHT22;30723;51.206;3.326;2024-03-17T08:30:31;11.80;99.90
44990;DHT22;30723;51.206;3.326;2024-03-17T08:32:57;11.80;99.90
44990;DHT22;30723;51.206;3.326;2024-03-17T08:35:23;11.70;99.90
44990;DHT22;30723;51.206;3.326;2024-03-17T08:37:49;11.70;99.90
44990;DHT22;30723;51.206;3.326;2024-03-17T08:40:16;11.70;99.90
44990;DHT22;30723;51.206;3.326;2024-03-17T08:42:42;11.70;99.90
44990;DHT22;30723;51.206;3.326;2024-03-17T08:45:08;11.80;99.90
44990;DHT22;30723;51.206;3.326;2024-03-17T08:47:35;11.70;99.90
44990;DHT22;30723;51.206;3.326;2024-03-17T08:50:01;11.70;99.90
44990;DHT22;30723;51.206;3.326;2024-03-17T08:52:32;11.70;99.90
44990;DHT22;30723;51.206;3.326;2024-03-17T08:54:58;11.70;99.90
44990;DHT22;30723;51.206;3.326;2024-03-17T08:57:25;11.80;99.90
44990;DHT22;30723;51.206;3.326;2024-03-17T08:59:51;11.70;99.90
44990;DHT22;30723;51.206;3.326;2024-03-17T09:02:18;11.80;99.90
44990;DHT22;30723;51.206;3.326;2024-03-17T09:04:47;11.80;99.90
44990;DHT22;30723;51.206;3.326;2024-03-17T09:07:13;11.70;99.90
44990;DHT22;30723;51.206;3.326;2024-03-17T09:09:41;11.70;99.90
44990;DHT22;30723;51.206;3.326;2024-03-17T09:12:08;11.60;99.90
44990;DHT22;30723;51.206;3.326;2024-03-17T09:14:34;11.50;99.90
44990;DHT22;30723;51.206;3.326;2024-03-17T09:17:01;11.40;99.90
44990;DHT22;30723;51.206;3.326;2024-03-17T09:19:27;11.30;99.90
44990;DHT22;30723;51.206;3.326;2024-03-17T09:21:55;11.30;99.90
44990;DHT22;30723;51.206;3.326;2024-03-17T09:24:21;11.30;99.90
44990;DHT22;30723;51.206;3.326;2024-03-17T09:26:46;11.40;99.90
44990;DHT22;30723;51.206;3.326;2024-03-17T09:29:13;11.40;99.90
44990;DHT22;30723;51.206;3.326;2024-03-17T09:31:41;11.40;99.90
44990;DHT22;30723;51.206;3.326;2024-03-17T09:34:07;11.50;99.90
44990;DHT22;30723;51.206;3.326;2024-03-17T09:36:33;11.50;99.90
44990;DHT22;30723;51.206;3.326;2024-03-17T09:38:59;11.60;99.90
44990;DHT22;30723;51.206;3.326;2024-03-17T09:41:27;11.50;99.90
44990;DHT22;30723;51.206;3.326;2024-03-17T09:43:58;11.60;99.90
44990;DHT22;30723;51.206;3.326;2024-03-17T09:46:25;11.50;99.90
44990;DHT22;30723;51.206;3.326;2024-03-17T09:48:53;11.50;99.90
44990;DHT22;30723;51.206;3.326;2024-03-17T09:51:25;11.50;99.90
44990;DHT22;30723;51.206;3.326;2024-03-17T09:53:51;11.50;99.90
44990;DHT22;30723;51.206;3.326;2024-03-17T09:56:19;11.60;99.90
44990;DHT22;30723;51.206;3.326;2024-03-17T09:58:49;11.60;99.90
44990;DHT22;30723;51.206;3.326;2024-03-17T10:01:15;11.60;99.90
44990;DHT22;30723;51.206;3.326;2024-03-17T10:03:51;11.60;99.90
44990;DHT22;30723;51.206;3.326;2024-03-17T10:06:19;11.60;99.90
44990;DHT22;30723;51.206;3.326;2024-03-17T10:08:53;11.70;99.90
44990;DHT22;30723;51.206;3.326;2024-03-17T10:11:20;11.80;99.90
44990;DHT22;30723;51.206;3.326;2024-03-17T10:13:58;11.80;99.90
44990;DHT22;30723;51.206;3.326;2024-03-17T10:16:28;11.90;99.90
44990;DHT22;30723;51.206;3.326;2024-03-17T10:19:24;12.00;99.90
44990;DHT22;30723;51.206;3.326;2024-03-17T10:21:51;12.00;99.90
44990;DHT22;30723;51.206;3.326;2024-03-17T10:24:25;12.10;99.90
44990;DHT22;30723;51.206;3.326;2024-03-17T10:26:52;12.10;99.90
44990;DHT22;30723;51.206;3.326;2024-03-17T10:29:21;12.20;99.90
44990;DHT22;30723;51.206;3.326;2024-03-17T10:31:53;12.30;99.90
44990;DHT22;30723;51.206;3.326;2024-03-17T10:34:20;12.40;99.90
44990;DHT22;30723;51.206;3.326;2024-03-17T10:37:07;12.60;99.90
44990;DHT22;30723;51.206;3.326;2024-03-17T10:39:36;12.70;99.90
44990;DHT22;30723;51.206;3.326;2024-03-17T10:42:06;12.80;99.90
44990;DHT22;30723;51.206;3.326;2024-03-17T10:44:34;12.80;99.90
44990;DHT22;30723;51.206;3.326;2024-03-17T10:47:02;12.90;99.90
44990;DHT22;30723;51.206;3.326;2024-03-17T10:49:33;12.90;99.90
44990;DHT22;30723;51.206;3.326;2024-03-17T10:52:02;13.00;99.90
44990;DHT22;30723;51.206;3.326;2024-03-17T10:54:30;13.10;99.90
44990;DHT22;30723;51.206;3.326;2024-03-17T10:57:09;13.10;99.90
44990;DHT22;30723;51.206;3.326;2024-03-17T10:59:41;13.00;99.90
44990;DHT22;30723;51.206;3.326;2024-03-17T11:02:25;13.00;99.90
44990;DHT22;30723;51.206;3.326;2024-03-17T11:04:57;13.10;99.90
44990;DHT22;30723;51.206;3.326;2024-03-17T11:07:24;13.10;99.90
44990;DHT22;30723;51.206;3.326;2024-03-17T11:09:54;13.10;99.90
44990;DHT22;30723;51.206;3.326;2024-03-17T11:12:46;13.10;99.90
44990;DHT22;30723;51.206;3.326;2024-03-17T11:17:52;13.10;99.90
44990;DHT22;30723;51.206;3.326;2024-03-17T11:22:51;13.40;99.90
44990;DHT22;30723;51.206;3.326;2024-03-17T11:38:52;15.10;99.90
44990;DHT22;30723;51.206;3.326;2024-03-17T11:49:34;16.30;99.90
44990;DHT22;30723;51.206;3.326;2024-03-17T11:52:01;16.40;99.90
44990;DHT22;30723;51.206;3.326;2024-03-17T11:54:35;16.30;99.90
44990;DHT22;30723;51.206;3.326;2024-03-17T11:57:03;16.00;99.90
44990;DHT22;30723;51.206;3.326;2024-03-17T11:59:29;15.70;99.90
44990;DHT22;30723;51.206;3.326;2024-03-17T12:01:56;15.60;99.90
44990;DHT22;30723;51.206;3.326;2024-03-17T12:04:23;15.60;99.90
44990;DHT22;30723;51.206;3.326;2024-03-17T12:06:50;15.70;99.90
44990;DHT22;30723;51.206;3.326;2024-03-17T12:09:30;15.90;99.90
44990;DHT22;30723;51.206;3.326;2024-03-17T12:12:10;16.30;99.90
44990;DHT22;30723;51.206;3.326;2024-03-17T12:14:37;16.70;99.90
44990;DHT22;30723;51.206;3.326;2024-03-17T12:17:10;16.70;99.90
44990;DHT22;30723;51.206;3.326;2024-03-17T12:19:37;16.50;99.90
44990;DHT22;30723;51.206;3.326;2024-03-17T12:22:07;16.20;99.90
44990;DHT22;30723;51.206;3.326;2024-03-17T12:24:35;16.20;99.90
44990;DHT22;30723;51.206;3.326;2024-03-17T12:27:05;16.00;99.90
44990;DHT22;30723;51.206;3.326;2024-03-17T12:29:38;15.80;99.90
44990;DHT22;30723;51.206;3.326;2024-03-17T12:32:21;15.90;99.90
44990;DHT22;30723;51.206;3.326;2024-03-17T12:34:55;16.00;99.90
44990;DHT22;30723;51.206;3.326;2024-03-17T12:37:27;15.80;99.90
44990;DHT22;30723;51.206;3.326;2024-03-17T12:39:59;15.80;99.90
44990;DHT22;30723;51.206;3.326;2024-03-17T12:42:27;15.60;99.90
44990;DHT22;30723;51.206;3.326;2024-03-17T12:47:21;15.50;99.90
44990;DHT22;30723;51.206;3.326;2024-03-17T12:49:50;15.50;99.90
44990;DHT22;30723;51.206;3.326;2024-03-17T12:52:32;15.50;99.90
44990;DHT22;30723;51.206;3.326;2024-03-17T12:55:01;15.60;99.90
44990;DHT22;30723;51.206;3.326;2024-03-17T12:57:50;15.60;99.90
44990;DHT22;30723;51.206;3.326;2024-03-17T13:00:35;15.60;99.90
44990;DHT22;30723;51.206;3.326;2024-03-17T13:03:07;15.50;99.90
44990;DHT22;30723;51.206;3.326;2024-03-17T13:05:34;15.50;99.90
44990;DHT22;30723;51.206;3.326;2024-03-17T13:08:00;15.50;99.90
44990;DHT22;30723;51.206;3.326;2024-03-17T13:10:28;15.30;99.90
44990;DHT22;30723;51.206;3.326;2024-03-17T13:13:02;15.20;99.90
44990;DHT22;30723;51.206;3.326;2024-03-17T13:15:28;15.00;99.90
44990;DHT22;30723;51.206;3.326;2024-03-17T13:18:00;14.90;99.90
44990;DHT22;30723;51.206;3.326;2024-03-17T13:20:26;14.70;99.90
44990;DHT22;30723;51.206;3.326;2024-03-17T13:22:52;14.60;99.90
44990;DHT22;30723;51.206;3.326;2024-03-17T13:25:20;14.60;99.90
44990;DHT22;30723;51.206;3.326;2024-03-17T13:27:47;14.60;99.90
44990;DHT22;30723;51.206;3.326;2024-03-17T13:30:17;14.50;99.90
44990;DHT22;30723;51.206;3.326;2024-03-17T13:32:43;14.50;99.90
44990;DHT22;30723;51.206;3.326;2024-03-17T13:35:18;14.40;99.90
44990;DHT22;30723;51.206;3.326;2024-03-17T13:37:45;14.30;99.90
44990;DHT22;30723;51.206;3.326;2024-03-17T13:40:12;14.20;99.90
44990;DHT22;30723;51.206;3.326;2024-03-17T13:42:52;14.10;99.90
44990;DHT22;30723;51.206;3.326;2024-03-17T13:45:20;14.20;99.90
44990;DHT22;30723;51.206;3.326;2024-03-17T13:47:59;14.20;99.90
44990;DHT22;30723;51.206;3.326;2024-03-17T13:50:26;14.20;99.90
44990;DHT22;30723;51.206;3.326;2024-03-17T13:52:52;14.30;99.90
44990;DHT22;30723;51.206;3.326;2024-03-17T13:55:22;14.40;99.90
44990;DHT22;30723;51.206;3.326;2024-03-17T13:57:52;14.50;99.90
44990;DHT22;30723;51.206;3.326;2024-03-17T14:00:25;14.60;99.90
44990;DHT22;30723;51.206;3.326;2024-03-17T14:02:52;14.60;99.90
44990;DHT22;30723;51.206;3.326;2024-03-17T14:05:27;14.60;99.90
44990;DHT22;30723;51.206;3.326;2024-03-17T14:07:54;14.50;99.90
44990;DHT22;30723;51.206;3.326;2024-03-17T14:10:22;14.40;99.90
44990;DHT22;30723;51.206;3.326;2024-03-17T14:12:48;14.30;99.90
44990;DHT22;30723;51.206;3.326;2024-03-17T14:15:15;14.30;99.90
44990;DHT22;30723;51.206;3.326;2024-03-17T14:17:46;14.20;99.90
44990;DHT22;30723;51.206;3.326;2024-03-17T14:20:13;14.20;99.90
44990;DHT22;30723;51.206;3.326;2024-03-17T14:22:41;14.20;99.90
44990;DHT22;30723;51.206;3.326;2024-03-17T14:25:16;14.20;99.90
44990;DHT22;30723;51.206;3.326;2024-03-17T14:27:43;14.00;99.90
44990;DHT22;30723;51.206;3.326;2024-03-17T14:30:10;14.10;99.90
44990;DHT22;30723;51.206;3.326;2024-03-17T14:32:38;14.00;99.90
44990;DHT22;30723;51.206;3.326;2024-03-17T14:35:04;14.00;99.90
44990;DHT22;30723;51.206;3.326;2024-03-17T14:37:31;13.90;99.90
44990;DHT22;30723;51.206;3.326;2024-03-17T14:39:58;13.90;99.90
44990;DHT22;30723;51.206;3.326;2024-03-17T14:42:25;13.90;99.90
44990;DHT22;30723;51.206;3.326;2024-03-17T14:44:51;13.90;99.90
44990;DHT22;30723;51.206;3.326;2024-03-17T14:47:16;13.90;99.90
44990;DHT22;30723;51.206;3.326;2024-03-17T14:49:42;13.80;99.90
44990;DHT22;30723;51.206;3.326;2024-03-17T14:52:09;13.80;99.90
44990;DHT22;30723;51.206;3.326;2024-03-17T14:54:35;13.90;99.90
44990;DHT22;30723;51.206;3.326;2024-03-17T14:57:01;13.90;99.90
44990;DHT22;30723;51.206;3.326;2024-03-17T14:59:26;13.80;99.90
44990;DHT22;30723;51.206;3.326;2024-03-17T15:01:52;13.80;99.90
44990;DHT22;30723;51.206;3.326;2024-03-17T15:04:18;13.70;99.90
44990;DHT22;30723;51.206;3.326;2024-03-17T15:06:44;13.70;99.90
44990;DHT22;30723;51.206;3.326;2024-03-17T15:09:11;13.70;99.90
44990;DHT22;30723;51.206;3.326;2024-03-17T15:11:38;13.60;99.90
44990;DHT22;30723;51.206;3.326;2024-03-17T15:14:03;13.60;99.90
44990;DHT22;30723;51.206;3.326;2024-03-17T15:16:33;13.60;99.90
44990;DHT22;30723;51.206;3.326;2024-03-17T15:18:59;13.60;99.90
44990;DHT22;30723;51.206;3.326;2024-03-17T15:21:25;13.60;99.90
44990;DHT22;30723;51.206;3.326;2024-03-17T15:23:54;13.60;99.90
44990;DHT22;30723;51.206;3.326;2024-03-17T15:26:20;13.60;99.90
44990;DHT22;30723;51.206;3.326;2024-03-17T15:28:45;13.60;99.90
44990;DHT22;30723;51.206;3.326;2024-03-17T15:31:11;13.50;99.90
44990;DHT22;30723;51.206;3.326;2024-03-17T15:33:38;13.50;99.90
44990;DHT22;30723;51.206;3.326;2024-03-17T15:36:07;13.50;99.90
44990;DHT22;30723;51.206;3.326;2024-03-17T15:38:34;13.50;99.90
44990;DHT22;30723;51.206;3.326;2024-03-17T15:41:08;13.40;99.90
44990;DHT22;30723;51.206;3.326;2024-03-17T15:43:37;13.40;99.90
44990;DHT22;30723;51.206;3.326;2024-03-17T15:46:17;13.40;99.90
44990;DHT22;30723;51.206;3.326;2024-03-17T15:48:44;13.40;99.90
44990;DHT22;30723;51.206;3.326;2024-03-17T15:51:10;13.40;99.90
44990;DHT22;30723;51.206;3.326;2024-03-17T15:53:36;13.40;99.90
44990;DHT22;30723;51.206;3.326;2024-03-17T15:56:03;13.40;99.90
44990;DHT22;30723;51.206;3.326;2024-03-17T15:58:30;13.30;99.90
44990;DHT22;30723;51.206;3.326;2024-03-17T16:00:57;13.30;99.90
44990;DHT22;30723;51.206;3.326;2024-03-17T16:03:28;13.20;99.90
44990;DHT22;30723;51.206;3.326;2024-03-17T16:06:04;13.30;99.90
44990;DHT22;30723;51.206;3.326;2024-03-17T16:08:40;13.30;99.90
44990;DHT22;30723;51.206;3.326;2024-03-17T16:11:09;13.30;99.90
44990;DHT22;30723;51.206;3.326;2024-03-17T16:13:41;13.20;99.90